Time;durP1;ratioP1;P1;durP2;ratioP2;P2;SDS_P1;SDS_P2;PMS_P1;PMS_P2;Temp;Humidity;BMP_temperature;BMP_pressure;BME280_temperature;BME280_humidity;BME280_pressure;Samples;Min_cycle;Max_cycle;Signal;HPM_P1;HPM_P2
2022/03/05 00:00:53;;;;;;;14.13;5.75;;;0.10;99.90;;;;;;5083844;28;20435;-83
2022/03/05 00:03:19;;;;;;;11.82;6.40;;;1.20;99.90;;;;;;5060156;28;20028;-83
2022/03/05 00:05:45;;;;;;;12.35;6.45;;;-0.10;99.90;;;;;;5074522;28;20476;-84
2022/03/05 00:08:12;;;;;;;14.18;6.43;;;-0.30;99.90;;;;;;5080591;28;20520;-83
2022/03/05 00:10:38;;;;;;;13.27;6.50;;;-0.10;99.90;;;;;;5081043;28;20043;-83
2022/03/05 00:13:04;;;;;;;12.52;6.15;;;0.40;99.90;;;;;;5060331;28;20047;-83
2022/03/05 00:15:30;;;;;;;12.88;6.13;;;-0.10;99.90;;;;;;5076821;28;20040;-83
2022/03/05 00:17:56;;;;;;;12.40;6.22;;;-0.10;99.90;;;;;;5071795;28;20070;-84
2022/03/05 00:20:25;;;;;;;12.15;6.03;;;1.00;99.90;;;;;;5058765;28;20028;-83
2022/03/05 00:22:52;;;;;;;13.95;6.45;;;-0.10;99.90;;;;;;5073106;28;20094;-83
2022/03/05 00:25:25;;;;;;;11.68;5.95;;;0.30;99.90;;;;;;5082872;28;20037;-83
2022/03/05 00:27:52;;;;;;;12.02;6.30;;;-0.10;99.90;;;;;;5052006;28;20465;-83
2022/03/05 00:30:18;;;;;;;12.55;6.10;;;-0.20;99.90;;;;;;5080567;28;20127;-83
2022/03/05 00:32:45;;;;;;;11.73;5.85;;;1.00;99.90;;;;;;5076482;28;20543;-83
2022/03/05 00:35:12;;;;;;;12.07;6.05;;;-0.20;99.90;;;;;;5082163;28;20039;-83
2022/03/05 00:37:38;;;;;;;13.68;6.28;;;0.40;99.90;;;;;;5047713;28;20415;-83
2022/03/05 00:40:05;;;;;;;13.93;6.63;;;1.40;99.90;;;;;;5086578;28;20072;-83
2022/03/05 00:42:31;;;;;;;12.07;5.80;;;-0.30;99.90;;;;;;5081585;28;20654;-83
2022/03/05 00:44:57;;;;;;;14.05;5.78;;;-0.40;99.90;;;;;;5084994;28;20068;-83
2022/03/05 00:47:22;;;;;;;12.45;6.22;;;-0.40;99.90;;;;;;5068658;28;20041;-83
2022/03/05 00:49:48;;;;;;;14.00;6.60;;;-0.50;99.90;;;;;;5068905;28;20435;-83
2022/03/05 00:52:14;;;;;;;14.77;6.72;;;-0.20;99.90;;;;;;5083128;28;20065;-83
2022/03/05 00:54:39;;;;;;;13.57;6.45;;;-0.20;99.90;;;;;;5084293;28;20119;-82
2022/03/05 00:57:05;;;;;;;13.38;6.38;;;0.00;99.90;;;;;;5066691;28;20123;-82
2022/03/05 00:59:31;;;;;;;14.43;6.80;;;-0.60;99.90;;;;;;5083503;28;20044;-83
2022/03/05 01:01:57;;;;;;;12.45;6.55;;;-0.60;99.90;;;;;;5066000;28;20494;-83
2022/03/05 01:04:23;;;;;;;13.13;7.00;;;-0.50;99.90;;;;;;5068940;28;20119;-83
2022/03/05 01:06:48;;;;;;;13.30;6.30;;;-0.60;99.90;;;;;;5088470;28;20055;-83
2022/03/05 01:09:14;;;;;;;12.30;6.22;;;;;;;;;;5084942;28;20043;-84
2022/03/05 01:11:40;;;;;;;12.43;6.65;;;-0.70;99.90;;;;;;5090905;28;20578;-83
2022/03/05 01:14:07;;;;;;;12.70;6.60;;;-1.70;99.90;;;;;;5073398;28;20036;-83
2022/03/05 01:16:34;;;;;;;13.05;6.68;;;-0.80;99.90;;;;;;5069920;28;20036;-82
2022/03/05 01:19:00;;;;;;;14.50;6.72;;;-0.90;99.90;;;;;;5066084;28;20574;-83
2022/03/05 01:21:27;;;;;;;12.50;6.80;;;-0.80;99.90;;;;;;5066046;28;20033;-82
2022/03/05 01:23:53;;;;;;;14.68;6.55;;;-0.90;99.90;;;;;;5072815;28;20504;-83
2022/03/05 01:26:19;;;;;;;15.55;6.95;;;0.80;99.90;;;;;;5052762;28;20049;-83
2022/03/05 01:28:45;;;;;;;14.30;7.30;;;-1.00;99.90;;;;;;5087564;28;20162;-82
2022/03/05 01:31:11;;;;;;;13.73;7.05;;;-0.30;99.90;;;;;;5029228;28;20172;-82
2022/03/05 01:33:37;;;;;;;13.93;7.15;;;-1.00;99.90;;;;;;5084893;28;20127;-82
2022/03/05 01:36:02;;;;;;;13.60;7.00;;;-0.90;99.90;;;;;;5086340;28;20115;-82
2022/03/05 01:38:28;;;;;;;14.45;7.30;;;-1.10;99.90;;;;;;5054752;28;20484;-83
2022/03/05 01:40:54;;;;;;;13.77;7.13;;;-1.10;99.90;;;;;;5082952;28;20477;-82
2022/03/05 01:43:20;;;;;;;13.63;6.95;;;-2.60;99.90;;;;;;5053327;28;20036;-83
2022/03/05 01:45:46;;;;;;;15.25;7.30;;;-1.20;99.90;;;;;;5081801;28;20136;-82
2022/03/05 01:48:11;;;;;;;16.15;7.47;;;-0.90;99.90;;;;;;5069052;28;20489;-82
2022/03/05 01:50:37;;;;;;;15.13;7.45;;;-1.30;99.90;;;;;;5069519;28;20829;-82
2022/03/05 01:53:03;;;;;;;14.25;6.82;;;-1.30;99.90;;;;;;5065600;28;20031;-82
2022/03/05 01:55:29;;;;;;;15.13;7.07;;;-1.30;99.90;;;;;;5087939;28;20465;-82
2022/03/05 01:57:55;;;;;;;13.23;6.63;;;-0.70;99.90;;;;;;5070289;28;20134;-82
2022/03/05 02:00:21;;;;;;;15.23;7.00;;;-0.10;99.90;;;;;;5071951;28;20127;-82
2022/03/05 02:02:47;;;;;;;15.32;7.20;;;0.00;99.90;;;;;;5089075;28;20024;-82
2022/03/05 02:05:14;;;;;;;13.35;6.90;;;-1.40;99.90;;;;;;5084768;28;20562;-82
2022/03/05 02:07:40;;;;;;;13.63;7.13;;;-1.40;99.90;;;;;;5067255;28;20028;-82
2022/03/05 02:10:08;;;;;;;15.40;7.57;;;-1.50;99.90;;;;;;5071350;28;20040;-82
2022/03/05 02:12:35;;;;;;;13.23;7.13;;;-1.40;99.90;;;;;;5070732;28;20424;-82
2022/03/05 02:15:02;;;;;;;14.32;7.13;;;-1.50;99.90;;;;;;5068047;28;20033;-82
2022/03/05 02:17:28;;;;;;;14.63;7.30;;;-1.50;99.90;;;;;;5069076;28;20066;-82
2022/03/05 02:19:58;;;;;;;14.38;7.35;;;0.20;99.90;;;;;;5084549;28;20042;-81
2022/03/05 02:22:25;;;;;;;16.08;7.88;;;0.70;99.90;;;;;;5066507;28;20054;-82
2022/03/05 02:24:55;;;;;;;13.95;7.80;;;-1.40;99.90;;;;;;5065804;28;20107;-82
2022/03/05 02:27:23;;;;;;;13.32;7.35;;;-1.10;99.90;;;;;;5064938;28;20033;-81
2022/03/05 02:29:49;;;;;;;15.23;7.80;;;-1.50;99.90;;;;;;5071783;28;20450;-82
2022/03/05 02:32:15;;;;;;;14.07;7.35;;;-1.60;99.90;;;;;;5087925;28;20044;-81
2022/03/05 02:34:41;;;;;;;16.88;8.13;;;-1.60;99.90;;;;;;5087294;28;20048;-81
2022/03/05 02:37:10;;;;;;;14.57;7.70;;;-0.60;99.90;;;;;;5069085;28;20120;-82
2022/03/05 02:39:36;;;;;;;13.70;7.47;;;-1.10;99.90;;;;;;5082540;28;20036;-82
2022/03/05 02:42:03;;;;;;;15.43;7.25;;;-0.90;99.90;;;;;;5068264;28;20423;-82
2022/03/05 02:44:28;;;;;;;13.13;7.03;;;-1.60;99.90;;;;;;5083982;28;20032;-82
2022/03/05 02:46:55;;;;;;;14.88;7.78;;;-1.60;99.90;;;;;;5062291;28;20093;-82
2022/03/05 02:49:21;;;;;;;14.43;7.35;;;-1.00;99.90;;;;;;5047030;28;20167;-82
2022/03/05 02:51:47;;;;;;;15.50;7.78;;;-1.50;99.90;;;;;;5086202;28;20138;-81
2022/03/05 02:54:12;;;;;;;13.90;7.47;;;-1.60;99.90;;;;;;5086819;28;20040;-82
2022/03/05 02:56:38;;;;;;;15.77;8.00;;;-1.00;99.90;;;;;;5061169;28;20036;-81
2022/03/05 02:59:04;;;;;;;14.52;7.22;;;-1.60;99.90;;;;;;5069476;28;20333;-81
2022/03/05 03:01:29;;;;;;;14.57;7.55;;;-1.60;99.90;;;;;;5084584;28;20602;-81
2022/03/05 03:03:55;;;;;;;14.90;6.85;;;-1.50;99.90;;;;;;5071398;28;20039;-81
2022/03/05 03:06:21;;;;;;;14.80;7.18;;;-1.60;99.90;;;;;;5075073;28;20040;-81
2022/03/05 03:08:46;;;;;;;14.82;7.13;;;-1.20;99.90;;;;;;5081629;28;20043;-82
2022/03/05 03:11:12;;;;;;;13.68;6.63;;;0.00;99.90;;;;;;5085401;28;20071;-81
2022/03/05 03:13:38;;;;;;;13.88;6.97;;;-1.60;99.90;;;;;;5087166;28;20508;-82
2022/03/05 03:16:04;;;;;;;13.65;7.20;;;-1.60;99.90;;;;;;5074062;28;20044;-82
2022/03/05 03:18:30;;;;;;;13.75;7.32;;;-1.60;99.90;;;;;;5080773;28;20442;-84
2022/03/05 03:20:56;;;;;;;13.48;6.50;;;-1.60;99.90;;;;;;5081046;28;20083;-84
2022/03/05 03:23:21;;;;;;;13.32;6.60;;;-0.30;99.90;;;;;;5052271;28;20052;-82
2022/03/05 03:25:47;;;;;;;13.93;6.60;;;-1.60;99.90;;;;;;5063070;28;20031;-82
2022/03/05 03:28:13;;;;;;;14.13;6.70;;;-1.60;99.90;;;;;;5053112;28;20460;-81
2022/03/05 03:30:38;;;;;;;12.90;6.90;;;-1.60;99.90;;;;;;5063871;28;20036;-81
2022/03/05 03:33:04;;;;;;;13.82;6.38;;;0.70;99.90;;;;;;5088051;28;20046;-81
2022/03/05 03:35:30;;;;;;;13.60;7.05;;;-1.40;99.90;;;;;;5070276;28;20133;-81
2022/03/05 03:37:55;;;;;;;15.02;7.28;;;-1.60;99.90;;;;;;5051648;28;20105;-82
2022/03/05 03:40:21;;;;;;;13.65;6.40;;;0.30;99.90;;;;;;5077525;28;20118;-81
2022/03/05 03:42:49;;;;;;;14.68;6.50;;;-1.60;99.90;;;;;;5068873;28;20103;-81
2022/03/05 03:45:17;;;;;;;13.95;6.47;;;-1.70;99.90;;;;;;5087691;28;20032;-81
2022/03/05 03:47:45;;;;;;;13.63;6.63;;;-1.70;99.90;;;;;;5053045;28;20435;-81
2022/03/05 03:50:12;;;;;;;13.63;6.60;;;-1.80;99.90;;;;;;5086787;28;20052;-82
2022/03/05 03:52:38;;;;;;;12.00;5.85;;;-1.80;99.90;;;;;;5087460;28;20404;-82
2022/03/05 03:55:07;;;;;;;13.77;6.35;;;-1.80;99.90;;;;;;5081264;28;20044;-81
2022/03/05 03:57:32;;;;;;;13.68;6.40;;;-1.80;99.90;;;;;;5087739;28;20058;-81
2022/03/05 03:59:58;;;;;;;13.27;6.88;;;-1.80;99.90;;;;;;5064893;28;20078;-82
2022/03/05 04:02:24;;;;;;;12.82;6.30;;;-1.60;99.90;;;;;;5079872;28;20429;-81
2022/03/05 04:04:50;;;;;;;13.00;6.38;;;-1.70;99.90;;;;;;5048661;28;20040;-84
2022/03/05 04:10:00;;;;;;;13.68;6.28;;;-0.80;99.90;;;;;;5085277;28;20527;-81
2022/03/05 04:12:26;;;;;;;13.80;6.65;;;-1.10;99.90;;;;;;5065144;28;20040;-81
2022/03/05 04:14:54;;;;;;;13.05;6.32;;;-2.00;99.90;;;;;;5047995;28;20048;-81
2022/03/05 04:17:21;;;;;;;13.48;6.10;;;-1.90;99.90;;;;;;5064514;28;20044;-81
2022/03/05 04:19:47;;;;;;;14.82;6.50;;;-2.00;99.90;;;;;;5062686;28;20059;-82
2022/03/05 04:22:13;;;;;;;12.57;6.60;;;-2.00;99.90;;;;;;5085221;28;20032;-83
2022/03/05 04:24:38;;;;;;;12.48;6.50;;;-2.10;99.90;;;;;;5056660;28;20036;-81
2022/03/05 04:27:04;;;;;;;12.77;6.10;;;-1.70;99.90;;;;;;5056642;28;20028;-81
2022/03/05 04:29:30;;;;;;;13.60;6.20;;;-1.60;99.90;;;;;;5070835;28;20063;-81
2022/03/05 04:31:56;;;;;;;13.68;6.00;;;-2.10;99.90;;;;;;5053159;28;20036;-81
2022/03/05 04:34:22;;;;;;;12.85;5.93;;;-2.20;99.90;;;;;;5071571;28;20040;-81
2022/03/05 04:36:47;;;;;;;15.18;6.20;;;-1.60;99.90;;;;;;5090307;28;20039;-83
2022/03/05 04:39:13;;;;;;;13.65;6.88;;;-2.10;99.90;;;;;;5081916;28;20161;-81
2022/03/05 04:41:39;;;;;;;11.98;6.07;;;-2.10;99.90;;;;;;5073062;28;20050;-81
2022/03/05 04:44:05;;;;;;;12.65;5.90;;;-2.20;99.90;;;;;;5090443;28;20485;-81
2022/03/05 04:46:31;;;;;;;13.30;6.38;;;-2.20;99.90;;;;;;5072867;28;20039;-81
2022/03/05 04:48:57;;;;;;;12.07;5.55;;;-2.20;99.90;;;;;;5061561;28;20032;-81
2022/03/05 04:51:23;;;;;;;11.95;5.55;;;0.00;99.90;;;;;;5087707;28;20065;-81
2022/03/05 04:53:49;;;;;;;12.25;5.95;;;-2.20;99.90;;;;;;5090108;28;20641;-81
2022/03/05 04:56:15;;;;;;;12.85;6.18;;;-1.80;99.90;;;;;;5072746;28;20079;-81
2022/03/05 04:58:41;;;;;;;13.45;6.07;;;;;;;;;;5069104;28;20061;-81
2022/03/05 05:01:07;;;;;;;12.73;6.32;;;-2.20;99.90;;;;;;5086965;28;20066;-80
2022/03/05 05:03:33;;;;;;;11.23;5.47;;;-2.00;99.90;;;;;;5070471;28;20039;-81
2022/03/05 05:05:59;;;;;;;13.55;6.15;;;-2.10;99.90;;;;;;5090469;28;20046;-81
2022/03/05 05:08:25;;;;;;;13.80;6.53;;;-1.50;99.90;;;;;;5054379;28;20047;-81
2022/03/05 05:10:51;;;;;;;14.18;6.00;;;-2.10;99.90;;;;;;5085955;28;20040;-81
2022/03/05 05:13:17;;;;;;;14.65;5.85;;;-2.10;99.90;;;;;;5085173;28;20051;-80
2022/03/05 05:15:45;;;;;;;12.63;5.60;;;-2.00;99.90;;;;;;5058704;28;20033;-81
2022/03/05 05:18:11;;;;;;;13.27;6.15;;;-2.10;99.90;;;;;;5082500;28;20047;-81
2022/03/05 05:20:37;;;;;;;12.73;5.57;;;-2.10;99.90;;;;;;5085368;28;20055;-81
2022/03/05 05:23:03;;;;;;;13.77;6.20;;;-2.10;99.90;;;;;;5073059;28;20071;-81
2022/03/05 05:25:29;;;;;;;12.52;5.93;;;-1.60;99.90;;;;;;5073620;28;20036;-81
2022/03/05 05:27:55;;;;;;;13.30;5.85;;;-0.30;99.90;;;;;;5055898;28;20043;-81
2022/03/05 05:30:20;;;;;;;13.00;5.93;;;-2.10;99.90;;;;;;5085910;28;20138;-81
2022/03/05 05:32:46;;;;;;;12.85;6.05;;;-2.00;99.90;;;;;;5071326;28;20477;-84
2022/03/05 05:35:12;;;;;;;14.02;6.38;;;-0.10;99.90;;;;;;5071604;28;20040;-83
2022/03/05 05:37:38;;;;;;;12.93;5.78;;;-2.10;99.90;;;;;;5071429;28;20040;-83
2022/03/05 05:40:04;;;;;;;13.73;6.40;;;-1.50;99.90;;;;;;5071035;28;20488;-81
2022/03/05 05:42:30;;;;;;;13.75;5.85;;;-2.20;99.90;;;;;;5090040;28;20059;-81
2022/03/05 05:44:56;;;;;;;13.60;6.35;;;-2.20;99.90;;;;;;5070992;28;20491;-81
2022/03/05 05:47:21;;;;;;;12.40;5.97;;;-1.90;99.90;;;;;;5066076;28;20047;-82
2022/03/05 05:49:47;;;;;;;11.20;5.68;;;-2.10;99.90;;;;;;5065113;28;20047;-81
2022/03/05 05:52:13;;;;;;;12.35;5.65;;;-1.80;99.90;;;;;;5085954;28;20040;-81
2022/03/05 05:54:39;;;;;;;13.57;6.22;;;-2.30;99.90;;;;;;5088664;28;20068;-81
2022/03/05 05:57:05;;;;;;;12.85;6.63;;;-2.00;99.90;;;;;;5085408;28;20699;-82
2022/03/05 05:59:30;;;;;;;12.20;6.00;;;-1.90;99.90;;;;;;5067892;28;20481;-83
2022/03/05 06:01:56;;;;;;;13.80;6.68;;;-2.30;99.90;;;;;;5083240;28;20036;-82
2022/03/05 06:04:22;;;;;;;14.00;6.60;;;-2.10;99.90;;;;;;5076560;28;20032;-82
2022/03/05 06:06:48;;;;;;;13.50;6.70;;;-2.10;99.90;;;;;;5071276;28;20400;-82
2022/03/05 06:09:14;;;;;;;12.20;6.50;;;-2.10;99.90;;;;;;5069079;28;20040;-82
2022/03/05 06:11:39;;;;;;;13.32;6.28;;;-1.80;99.90;;;;;;5086006;28;20040;-82
2022/03/05 06:14:10;;;;;;;13.10;6.28;;;-2.40;99.90;;;;;;5068612;28;20048;-81
2022/03/05 06:16:35;;;;;;;11.57;6.05;;;-2.10;99.90;;;;;;5066768;28;20036;-82
2022/03/05 06:19:01;;;;;;;13.02;6.00;;;-1.70;99.90;;;;;;5064800;28;20033;-81
2022/03/05 06:21:27;;;;;;;14.40;7.25;;;-1.90;99.90;;;;;;5040867;28;20040;-81
2022/03/05 06:23:52;;;;;;;14.48;6.60;;;-2.20;99.90;;;;;;5083687;28;20048;-81
2022/03/05 06:26:19;;;;;;;13.05;6.85;;;-1.90;99.90;;;;;;5071708;28;20044;-81
2022/03/05 06:28:44;;;;;;;13.75;6.80;;;-0.80;99.90;;;;;;5067535;28;20491;-81
2022/03/05 06:31:10;;;;;;;12.70;6.63;;;-1.60;99.90;;;;;;5071093;28;20174;-81
2022/03/05 06:33:36;;;;;;;15.35;7.28;;;-1.10;99.90;;;;;;5085411;28;20292;-81
2022/03/05 06:36:03;;;;;;;13.45;7.13;;;-1.80;99.90;;;;;;5069970;28;20071;-81
2022/03/05 06:38:29;;;;;;;14.75;7.13;;;-2.20;99.90;;;;;;5082786;28;20051;-81
2022/03/05 06:40:54;;;;;;;13.55;6.88;;;-1.90;99.90;;;;;;5059018;28;20033;-81
2022/03/05 06:43:20;;;;;;;14.13;7.15;;;-2.10;99.90;;;;;;5068827;28;20044;-82
2022/03/05 06:45:46;;;;;;;14.65;7.28;;;-2.10;99.90;;;;;;5084693;28;20051;-81
2022/03/05 06:48:12;;;;;;;13.25;7.38;;;-2.10;99.90;;;;;;5084892;28;20546;-82
2022/03/05 06:50:38;;;;;;;15.43;7.85;;;-1.00;99.90;;;;;;5087510;28;20121;-81
2022/03/05 06:53:04;;;;;;;15.45;7.90;;;-1.90;99.90;;;;;;5081697;28;20391;-81
2022/03/05 06:55:30;;;;;;;14.77;7.78;;;-1.20;99.90;;;;;;5060966;28;20132;-81
2022/03/05 06:57:56;;;;;;;14.48;6.90;;;-1.80;99.90;;;;;;5067719;28;20112;-81
2022/03/05 07:00:22;;;;;;;15.98;7.57;;;-0.90;99.90;;;;;;5062815;28;20065;-81
2022/03/05 07:02:48;;;;;;;13.90;6.90;;;-1.60;99.90;;;;;;5079985;28;20044;-82
2022/03/05 07:05:16;;;;;;;14.65;7.45;;;-1.50;99.90;;;;;;5083842;28;20035;-81
2022/03/05 07:07:42;;;;;;;15.23;7.55;;;-1.40;99.90;;;;;;5082642;28;20036;-81
2022/03/05 07:10:09;;;;;;;15.25;7.35;;;-1.30;99.90;;;;;;5068589;28;20645;-82
2022/03/05 07:12:35;;;;;;;15.52;7.68;;;-1.20;99.90;;;;;;5069733;28;20456;-82
2022/03/05 07:15:01;;;;;;;14.75;7.53;;;-0.50;99.90;;;;;;5075622;28;20080;-82
2022/03/05 07:17:27;;;;;;;12.77;6.95;;;-1.00;99.90;;;;;;5085946;28;20067;-82
2022/03/05 07:19:55;;;;;;;14.15;6.88;;;-0.90;99.90;;;;;;5074191;28;20036;-81
2022/03/05 07:22:21;;;;;;;15.38;7.55;;;-0.10;99.90;;;;;;5044191;28;20048;-82
2022/03/05 07:24:47;;;;;;;16.75;7.57;;;-0.70;99.90;;;;;;5067609;28;20036;-82
2022/03/05 07:27:12;;;;;;;15.02;7.40;;;-0.70;99.90;;;;;;5075703;28;20070;-82
2022/03/05 07:29:38;;;;;;;15.35;7.97;;;-0.50;99.90;;;;;;5074350;28;20094;-82
2022/03/05 07:32:04;;;;;;;15.15;7.53;;;0.40;99.90;;;;;;5063796;28;20111;-82
2022/03/05 07:34:31;;;;;;;13.45;7.15;;;-0.30;99.90;;;;;;5078191;28;20085;-82
2022/03/05 07:36:57;;;;;;;13.73;7.47;;;1.40;99.90;;;;;;5081298;28;20043;-82
2022/03/05 07:39:24;;;;;;;13.27;7.20;;;-0.20;99.90;;;;;;5070534;28;20039;-83
2022/03/05 07:41:49;;;;;;;15.10;6.90;;;0.00;99.90;;;;;;5049850;28;20032;-83
2022/03/05 07:44:15;;;;;;;16.27;7.90;;;0.10;99.90;;;;;;5086955;28;20043;-83
2022/03/05 07:46:41;;;;;;;15.90;7.70;;;0.20;99.90;;;;;;5079672;28;20109;-83
2022/03/05 07:49:07;;;;;;;14.30;7.30;;;0.20;99.90;;;;;;5052055;28;20170;-82
2022/03/05 07:51:36;;;;;;;16.38;7.70;;;2.00;99.90;;;;;;5066348;28;20126;-84
2022/03/05 07:54:02;;;;;;;13.27;6.68;;;0.40;99.90;;;;;;5068007;28;20036;-82
2022/03/05 07:56:28;;;;;;;13.45;7.03;;;0.50;99.90;;;;;;5028491;28;20040;-83
2022/03/05 07:58:54;;;;;;;14.23;7.15;;;0.20;99.90;;;;;;5083300;28;20082;-83
2022/03/05 08:01:20;;;;;;;12.63;7.00;;;0.60;99.90;;;;;;5068681;28;20625;-84
2022/03/05 08:03:45;;;;;;;13.90;7.10;;;0.80;99.90;;;;;;5059878;28;20432;-83
2022/03/05 08:06:11;;;;;;;13.13;6.95;;;0.90;99.90;;;;;;5052255;28;20047;-83
2022/03/05 08:08:37;;;;;;;13.82;7.20;;;1.40;99.90;;;;;;5059879;28;20051;-84
2022/03/05 08:11:03;;;;;;;14.43;7.07;;;1.00;99.90;;;;;;5078647;28;20546;-83
2022/03/05 08:13:29;;;;;;;13.55;7.00;;;1.70;99.90;;;;;;5066136;28;20225;-85
2022/03/05 08:15:56;;;;;;;15.80;7.28;;;1.20;99.90;;;;;;5070906;28;20616;-84
2022/03/05 08:18:22;;;;;;;13.55;6.90;;;2.50;99.90;;;;;;5058749;28;20566;-83
2022/03/05 08:20:48;;;;;;;14.73;7.03;;;1.30;99.90;;;;;;5086955;28;20098;-82
2022/03/05 08:23:14;;;;;;;14.35;7.22;;;1.40;99.90;;;;;;5070564;28;20056;-82
2022/03/05 08:25:40;;;;;;;15.75;7.32;;;1.50;99.90;;;;;;5064412;28;20047;-82
2022/03/05 08:28:06;;;;;;;13.65;6.90;;;3.10;99.90;;;;;;5068443;28;20047;-82
2022/03/05 08:30:32;;;;;;;14.05;7.32;;;2.50;99.90;;;;;;5067575;28;20037;-83
2022/03/05 08:32:58;;;;;;;13.95;7.00;;;2.80;99.90;;;;;;5065421;28;20492;-82
2022/03/05 08:35:24;;;;;;;13.63;6.68;;;2.00;99.90;;;;;;5068747;28;20035;-82
2022/03/05 08:37:52;;;;;;;13.25;6.75;;;2.40;99.90;;;;;;5078400;28;20035;-82
2022/03/05 08:40:19;;;;;;;14.38;6.95;;;3.60;99.90;;;;;;5080279;28;20036;-83
2022/03/05 08:42:46;;;;;;;14.80;7.38;;;3.90;99.90;;;;;;5026010;28;20043;-83
2022/03/05 08:45:12;;;;;;;13.68;7.35;;;4.60;99.90;;;;;;5086299;28;20036;-82
2022/03/05 08:47:38;;;;;;;14.40;7.35;;;2.30;99.90;;;;;;5067662;28;20534;-82
2022/03/05 08:50:05;;;;;;;15.50;7.40;;;2.40;99.90;;;;;;5082330;28;20105;-83
2022/03/05 08:52:36;;;;;;;14.35;6.93;;;2.50;99.90;;;;;;5084713;28;20067;-82
2022/03/05 08:55:07;;;;;;;14.98;7.57;;;2.60;99.90;;;;;;5073005;28;20493;-84
2022/03/05 08:57:33;;;;;;;13.98;7.20;;;;;;;;;;5076951;28;20095;-82
2022/03/05 08:59:59;;;;;;;15.05;7.68;;;2.70;99.90;;;;;;5058190;28;20047;-82
2022/03/05 09:02:25;;;;;;;14.20;7.40;;;2.80;99.90;;;;;;5078412;28;20497;-83
2022/03/05 09:04:51;;;;;;;16.55;8.00;;;3.00;99.90;;;;;;5064844;28;20113;-83
2022/03/05 09:07:16;;;;;;;14.77;7.70;;;3.00;99.90;;;;;;5082476;28;20044;-82
2022/03/05 09:09:42;;;;;;;14.73;7.50;;;2.00;99.90;;;;;;5045764;28;20032;-83
2022/03/05 09:12:08;;;;;;;16.90;7.82;;;3.10;99.90;;;;;;5069642;28;20546;-82
2022/03/05 09:14:34;;;;;;;16.05;7.82;;;3.10;99.90;;;;;;5072418;28;20496;-82
2022/03/05 09:17:00;;;;;;;15.57;7.63;;;4.90;99.90;;;;;;5072537;28;20036;-83
2022/03/05 09:19:25;;;;;;;16.85;7.68;;;4.20;99.90;;;;;;5071858;28;20720;-83
2022/03/05 09:21:51;;;;;;;14.05;7.22;;;3.40;99.90;;;;;;5086618;28;20108;-82
2022/03/05 09:24:17;;;;;;;15.52;7.75;;;3.50;99.90;;;;;;5070628;28;20054;-83
2022/03/05 09:26:43;;;;;;;15.10;7.65;;;3.50;99.90;;;;;;5070881;28;20036;-82
2022/03/05 09:29:08;;;;;;;16.45;8.13;;;5.50;99.90;;;;;;5070659;28;20043;-83
2022/03/05 09:31:34;;;;;;;15.55;8.00;;;3.70;99.90;;;;;;5073067;28;20028;-82
2022/03/05 09:34:00;;;;;;;14.90;7.53;;;3.70;99.90;;;;;;5053515;28;20129;-82
2022/03/05 09:36:25;;;;;;;15.07;7.88;;;3.70;99.90;;;;;;5066832;28;20097;-83
2022/03/05 09:38:51;;;;;;;15.38;8.15;;;3.80;99.90;;;;;;5052070;28;20119;-83
2022/03/05 09:41:17;;;;;;;14.40;7.82;;;5.20;99.90;;;;;;5051432;28;20119;-82
2022/03/05 09:43:43;;;;;;;15.55;7.57;;;3.90;99.90;;;;;;5053545;28;20037;-83
2022/03/05 09:46:10;;;;;;;15.23;7.88;;;5.10;99.90;;;;;;5065528;28;20090;-82
2022/03/05 09:48:37;;;;;;;15.15;7.85;;;4.10;99.90;;;;;;5067739;28;20096;-83
2022/03/05 09:51:03;;;;;;;15.30;7.97;;;4.10;99.90;;;;;;5070134;28;20040;-82
2022/03/05 09:53:30;;;;;;;16.45;7.90;;;4.10;99.90;;;;;;5054908;28;20131;-82
2022/03/05 09:55:56;;;;;;;16.20;8.00;;;4.20;99.90;;;;;;5081106;28;20113;-83
2022/03/05 09:58:22;;;;;;;16.35;8.13;;;4.90;99.90;;;;;;5081985;28;20040;-82
2022/03/05 10:00:48;;;;;;;15.95;7.78;;;4.60;99.90;;;;;;5053145;28;20156;-83
2022/03/05 10:03:15;;;;;;;16.63;8.30;;;4.20;99.90;;;;;;5063912;28;20040;-83
2022/03/05 10:05:41;;;;;;;15.10;8.00;;;4.30;99.90;;;;;;5070007;28;20397;-83
2022/03/05 10:08:08;;;;;;;15.60;8.20;;;4.40;99.90;;;;;;5049638;28;20040;-82
2022/03/05 10:10:53;;;;;;;16.50;8.10;;;5.60;99.90;;;;;;5065969;28;20029;-83
2022/03/05 10:13:22;;;;;;;15.30;8.07;;;4.50;99.90;;;;;;5049884;28;20127;-83
2022/03/05 10:15:51;;;;;;;15.02;8.30;;;5.70;99.90;;;;;;5084943;28;20036;-82
2022/03/05 10:18:17;;;;;;;17.25;8.55;;;6.10;99.90;;;;;;5085835;28;20087;-82
2022/03/05 10:20:51;;;;;;;15.75;8.32;;;4.60;99.90;;;;;;5084297;28;20111;-82
2022/03/05 10:23:18;;;;;;;15.13;8.25;;;4.70;99.90;;;;;;5077336;28;20132;-83
2022/03/05 10:25:47;;;;;;;16.73;8.45;;;6.00;99.90;;;;;;5083551;28;20150;-83
2022/03/05 10:28:17;;;;;;;16.95;8.27;;;4.70;99.90;;;;;;5094018;28;20047;-83
2022/03/05 10:31:02;;;;;;;17.52;8.35;;;5.80;99.90;;;;;;5087941;28;20039;-83
2022/03/05 10:33:33;;;;;;;19.67;8.80;;;4.80;99.90;;;;;;5088178;28;20093;-82
2022/03/05 10:36:02;;;;;;;17.60;8.52;;;4.90;99.90;;;;;;5086801;28;20108;-83
2022/03/05 10:38:51;;;;;;;17.00;8.80;;;5.70;99.90;;;;;;5066057;28;20413;-82
2022/03/05 10:41:19;;;;;;;16.55;8.15;;;5.00;99.90;;;;;;5079699;28;20051;-83
2022/03/05 10:44:06;;;;;;;17.60;8.90;;;5.10;99.90;;;;;;5077860;28;20046;-82
2022/03/05 10:47:04;;;;;;;18.08;8.82;;;6.00;99.90;;;;;;5047845;28;20047;-83
2022/03/05 10:49:37;;;;;;;16.75;7.85;;;5.10;99.90;;;;;;5054335;28;20044;-83
2022/03/05 10:52:05;;;;;;;14.95;7.78;;;5.70;99.90;;;;;;5059541;28;20053;-82
2022/03/05 10:54:35;;;;;;;15.98;8.75;;;5.20;99.90;;;;;;5071642;28;20516;-83
2022/03/05 10:57:21;;;;;;;15.38;8.18;;;5.80;99.90;;;;;;5077029;28;20048;-82
2022/03/05 10:59:52;;;;;;;16.58;8.02;;;5.40;99.90;;;;;;5070261;28;20036;-82
2022/03/05 11:02:20;;;;;;;15.68;8.23;;;5.40;99.90;;;;;;5097006;28;20036;-83
2022/03/05 11:04:46;;;;;;;16.10;8.02;;;6.80;99.90;;;;;;5065590;28;20036;-83
2022/03/05 11:07:16;;;;;;;14.35;7.07;;;6.40;99.90;;;;;;5054801;28;20086;-83
2022/03/05 11:09:43;;;;;;;14.30;7.72;;;5.50;99.90;;;;;;5045802;28;20142;-82
2022/03/05 11:12:14;;;;;;;17.40;8.40;;;6.40;99.90;;;;;;5075673;28;20040;-82
2022/03/05 11:14:43;;;;;;;16.50;8.27;;;5.60;99.90;;;;;;5080118;28;20032;-83
2022/03/05 11:17:10;;;;;;;15.75;8.32;;;4.20;99.90;;;;;;5071346;28;20439;-82
2022/03/05 11:19:36;;;;;;;14.80;8.10;;;7.00;99.90;;;;;;5084989;28;20037;-82
2022/03/05 11:22:03;;;;;;;16.58;8.25;;;5.70;99.90;;;;;;5082015;28;20040;-82
2022/03/05 11:24:30;;;;;;;18.48;8.77;;;5.60;99.90;;;;;;5052476;28;20094;-82
2022/03/05 11:26:56;;;;;;;16.00;8.45;;;5.80;99.90;;;;;;5056710;28;20437;-82
2022/03/05 11:29:27;;;;;;;17.77;8.77;;;7.40;99.90;;;;;;5086462;28;20057;-83
2022/03/05 11:32:08;;;;;;;15.07;8.10;;;6.00;99.90;;;;;;5085034;28;20036;-83
2022/03/05 11:34:46;;;;;;;17.55;9.02;;;6.00;99.90;;;;;;5087528;28;20048;-82
2022/03/05 11:37:31;;;;;;;16.52;8.65;;;6.00;99.90;;;;;;5080267;28;20044;-82
2022/03/05 11:39:59;;;;;;;14.98;8.27;;;6.10;99.90;;;;;;5065222;28;20047;-83
2022/03/05 11:42:37;;;;;;;17.08;8.60;;;6.40;99.90;;;;;;5070911;28;20028;-83
2022/03/05 11:45:27;;;;;;;15.63;8.45;;;6.90;99.90;;;;;;5088081;28;20115;-83
2022/03/05 11:47:55;;;;;;;16.65;8.65;;;6.10;99.90;;;;;;5082761;28;20040;-82
2022/03/05 11:50:21;;;;;;;16.27;8.50;;;6.20;99.90;;;;;;5075408;28;20040;-83
2022/03/05 11:52:53;;;;;;;17.55;9.13;;;6.30;99.90;;;;;;5056670;28;20074;-83
2022/03/05 11:55:24;;;;;;;16.83;8.63;;;6.40;99.90;;;;;;5082072;28;20055;-82
2022/03/05 11:57:52;;;;;;;17.13;8.95;;;6.50;99.90;;;;;;5084568;28;20046;-83
2022/03/05 12:00:19;;;;;;;16.00;8.30;;;8.10;99.90;;;;;;5086803;28;20036;-83
2022/03/05 12:02:56;;;;;;;16.20;8.65;;;6.60;99.90;;;;;;5067787;28;20630;-83
2022/03/05 12:05:52;;;;;;;15.38;8.23;;;6.60;99.90;;;;;;5073582;28;20044;-83
2022/03/05 12:08:24;;;;;;;16.65;8.40;;;6.50;99.90;;;;;;5080413;28;20040;-83
2022/03/05 12:11:11;;;;;;;15.23;8.05;;;8.10;99.90;;;;;;5056052;28;20036;-83
2022/03/05 12:13:41;;;;;;;15.55;8.55;;;6.70;99.90;;;;;;5081945;28;20036;-83
2022/03/05 12:16:27;;;;;;;17.08;8.35;;;6.60;99.90;;;;;;5081826;28;20065;-83
2022/03/05 12:18:56;;;;;;;15.35;8.02;;;6.70;99.90;;;;;;5097233;28;20040;-82
2022/03/05 12:21:29;;;;;;;16.58;8.23;;;7.20;99.90;;;;;;5052568;28;20044;-83
2022/03/05 12:24:07;;;;;;;17.45;9.02;;;6.80;99.90;;;;;;5079630;28;20055;-83
2022/03/05 12:26:50;;;;;;;19.35;9.90;;;6.80;99.90;;;;;;5085974;28;20040;-83
2022/03/05 12:29:15;;;;;;;;;;;6.80;99.90;;;;;;5084958;28;20123;-84
2022/03/05 12:31:43;;;;;;;32.55;17.05;;;6.90;99.90;;;;;;5049998;28;20057;-82
2022/03/05 12:34:11;;;;;;;28.30;16.20;;;7.20;99.90;;;;;;5067287;28;20040;-83
2022/03/05 12:36:47;;;;;;;21.58;12.63;;;6.90;99.90;;;;;;5082513;28;20036;-83
2022/03/05 12:39:14;;;;;;;19.83;11.25;;;7.00;99.90;;;;;;5045583;28;20040;-83
2022/03/05 12:41:47;;;;;;;18.92;10.75;;;8.80;99.90;;;;;;5071468;28;20040;-83
2022/03/05 12:44:14;;;;;;;16.27;9.15;;;7.30;99.90;;;;;;5078950;28;20044;-83
2022/03/05 12:46:40;;;;;;;17.80;9.40;;;8.70;99.90;;;;;;5067504;28;20482;-83